createdAt,value
2019-01-25T00:00:21.512Z,26.47
2019-01-25T00:02:49.914Z,24.40
2019-01-25T00:05:18.696Z,22.80
2019-01-25T00:07:47.409Z,25.27
2019-01-25T00:10:15.876Z,24.27
2019-01-25T00:12:44.625Z,25.20
2019-01-25T00:15:14.169Z,23.40
2019-01-25T00:17:43.206Z,24.27
2019-01-25T00:20:13.022Z,20.80
2019-01-25T00:22:42.086Z,25.30
2019-01-25T00:25:11.078Z,25.07
2019-01-25T00:27:39.755Z,23.50
2019-01-25T00:30:14.065Z,24.93
2019-01-25T00:32:43.622Z,24.70
2019-01-25T00:35:12.248Z,25.40
2019-01-25T00:37:40.934Z,25.20
2019-01-25T00:40:19.814Z,25.57
2019-01-25T00:42:48.621Z,23.37
2019-01-25T00:45:17.358Z,26.53
2019-01-25T00:47:45.756Z,26.80
2019-01-25T00:50:19.510Z,24.30
2019-01-25T00:52:48.969Z,24.67
2019-01-25T00:55:17.625Z,27.27
2019-01-25T00:57:46.397Z,24.20
2019-01-25T01:00:18.301Z,24.77
2019-01-25T01:02:47.014Z,27.17
2019-01-25T01:05:16.207Z,27.03
2019-01-25T01:07:45.306Z,26.60
2019-01-25T01:10:14.759Z,24.77
2019-01-25T01:12:43.606Z,25.73
2019-01-25T01:15:14.379Z,25.43
2019-01-25T01:17:43.136Z,25.13
2019-01-25T01:20:15.178Z,27.47
2019-01-25T01:22:44.474Z,25.17
2019-01-25T01:25:13.677Z,26.10
2019-01-25T01:27:42.674Z,23.57
2019-01-25T01:30:17.589Z,24.20
2019-01-25T01:32:46.140Z,25.50
2019-01-25T01:35:14.570Z,24.43
2019-01-25T01:37:43.273Z,25.63
2019-01-25T01:40:21.813Z,27.13
2019-01-25T01:42:47.445Z,24.07
2019-01-25T01:45:16.609Z,23.60
2019-01-25T01:47:45.371Z,25.73
2019-01-25T01:50:15.847Z,26.17
2019-01-25T01:52:44.605Z,26.40
2019-01-25T01:55:13.431Z,26.60
2019-01-25T01:57:41.901Z,24.50
2019-01-25T02:00:13.700Z,23.10
2019-01-25T02:02:42.438Z,26.70
2019-01-25T02:05:10.974Z,23.83
2019-01-25T02:07:39.415Z,26.27
2019-01-25T02:10:14.089Z,25.10
2019-01-25T02:12:42.494Z,24.23
2019-01-25T02:15:13.920Z,24.87
2019-01-25T02:17:42.959Z,23.90
2019-01-25T02:20:15.227Z,25.40
2019-01-25T02:22:43.628Z,24.90
2019-01-25T02:25:12.122Z,27.00
2019-01-25T02:27:41.325Z,24.67
2019-01-25T02:30:18.704Z,21.90
2019-01-25T02:32:47.588Z,27.40
2019-01-25T02:35:16.133Z,23.80
2019-01-25T02:37:45.917Z,26.53
2019-01-25T02:40:17.349Z,24.40
2019-01-25T02:42:46.096Z,27.03
2019-01-25T02:45:14.654Z,30.30
2019-01-25T02:47:43.077Z,24.70
2019-01-25T02:50:14.449Z,25.03
2019-01-25T02:52:42.909Z,26.17
2019-01-25T02:55:12.471Z,28.17
2019-01-25T02:57:41.114Z,25.77
2019-01-25T03:00:18.696Z,25.50
2019-01-25T03:02:47.570Z,26.67
2019-01-25T03:05:18.035Z,26.40
2019-01-25T03:07:46.560Z,26.17
2019-01-25T03:10:17.046Z,25.87
2019-01-25T03:12:45.524Z,24.80
2019-01-25T03:15:16.497Z,25.10
2019-01-25T03:17:44.940Z,28.77
2019-01-25T03:20:15.518Z,27.17
2019-01-25T03:22:44.218Z,27.07
2019-01-25T03:25:20.991Z,28.03
2019-01-25T03:27:49.678Z,26.63
2019-01-25T03:30:20.453Z,25.93
2019-01-25T03:32:49.173Z,28.07
2019-01-25T03:35:19.859Z,29.63
2019-01-25T03:37:48.522Z,34.97
2019-01-25T03:40:19.412Z,34.87
2019-01-25T03:42:48.261Z,28.23
2019-01-25T03:45:17.643Z,28.13
2019-01-25T03:47:46.186Z,28.63
2019-01-25T03:50:20.412Z,28.67
2019-01-25T03:52:49.072Z,27.47
2019-01-25T03:55:18.460Z,27.97
2019-01-25T03:57:47.281Z,28.17
2019-01-25T04:00:21.710Z,29.80
2019-01-25T04:02:50.206Z,28.80
2019-01-25T04:05:20.721Z,30.17
2019-01-25T04:07:49.976Z,27.60
2019-01-25T04:10:21.733Z,28.37
2019-01-25T04:12:50.550Z,27.27
2019-01-25T04:15:21.981Z,28.53
2019-01-25T04:17:50.857Z,27.73
2019-01-25T04:20:21.143Z,27.60
2019-01-25T04:22:49.610Z,30.60
2019-01-25T04:25:21.270Z,28.63
2019-01-25T04:27:50.054Z,28.87
2019-01-25T04:30:23.931Z,29.10
2019-01-25T04:32:52.549Z,30.00
2019-01-25T04:35:21.011Z,32.33
2019-01-25T04:37:49.719Z,28.60
2019-01-25T04:40:18.865Z,29.87
2019-01-25T04:42:47.433Z,27.10
2019-01-25T04:45:18.145Z,28.37
2019-01-25T04:47:46.887Z,28.40
2019-01-25T04:50:19.141Z,29.40
2019-01-25T04:52:48.218Z,29.60
2019-01-25T04:55:24.482Z,29.80
2019-01-25T04:57:53.262Z,27.60
2019-01-25T05:00:23.553Z,28.40
2019-01-25T05:03:00.258Z,28.13
2019-01-25T05:05:30.334Z,30.80
2019-01-25T05:08:10.575Z,27.47
2019-01-25T05:10:39.034Z,29.27
2019-01-25T05:13:07.458Z,29.80
2019-01-25T05:15:36.076Z,32.80
2019-01-25T05:18:05.147Z,27.63
2019-01-25T05:20:33.666Z,31.17
2019-01-25T05:23:05.063Z,29.03
2019-01-25T05:25:33.811Z,29.80
2019-01-25T05:28:16.025Z,28.57
2019-01-25T05:30:53.157Z,29.40
2019-01-25T05:33:22.111Z,28.27
2019-01-25T05:35:50.844Z,27.60
2019-01-25T05:38:19.461Z,29.03
2019-01-25T05:40:48.258Z,29.10
2019-01-25T05:43:16.662Z,29.37
2019-01-25T05:45:47.870Z,29.10
2019-01-25T05:48:16.290Z,31.37
2019-01-25T05:50:44.940Z,28.63
2019-01-25T05:53:13.326Z,32.30
2019-01-25T05:55:42.014Z,30.00
2019-01-25T05:58:10.749Z,29.87
2019-01-25T06:00:40.932Z,29.73
2019-01-25T06:03:11.400Z,28.83
2019-01-25T06:05:39.868Z,30.83
2019-01-25T06:08:30.176Z,32.17
2019-01-25T06:11:01.041Z,31.23
2019-01-25T06:13:30.416Z,30.47
2019-01-25T06:15:59.108Z,29.80
2019-01-25T06:18:27.627Z,31.90
2019-01-25T06:20:57.823Z,31.13
2019-01-25T06:23:26.212Z,29.30
2019-01-25T06:25:56.491Z,32.17
2019-01-25T06:28:25.069Z,29.10
2019-01-25T06:30:53.651Z,26.53
2019-01-25T06:33:22.204Z,32.90
2019-01-25T06:35:50.676Z,29.63
2019-01-25T06:38:20.027Z,28.60
2019-01-25T06:40:49.373Z,29.87
2019-01-25T06:43:18.133Z,30.03
2019-01-25T06:45:46.626Z,31.57
2019-01-25T06:48:15.361Z,31.70
2019-01-25T06:50:43.905Z,32.40
2019-01-25T06:53:12.348Z,29.10
2019-01-25T06:55:40.820Z,33.60
2019-01-25T06:58:23.260Z,30.10
2019-01-25T07:00:53.537Z,31.67
2019-01-25T07:03:21.945Z,31.50
2019-01-25T07:05:50.622Z,29.87
2019-01-25T07:08:19.602Z,30.33
2019-01-25T07:10:48.296Z,30.50
2019-01-25T07:13:16.722Z,31.00
2019-01-25T07:15:45.167Z,32.10
2019-01-25T07:18:13.573Z,32.57
2019-01-25T07:20:41.997Z,30.70
2019-01-25T07:23:10.426Z,31.70
2019-01-25T07:25:38.830Z,31.10
2019-01-25T07:28:07.556Z,30.00
2019-01-25T07:30:36.009Z,33.60
2019-01-25T07:33:06.002Z,32.70
2019-01-25T07:35:34.599Z,31.80
2019-01-25T07:38:03.280Z,32.97
2019-01-25T07:40:32.261Z,31.70
2019-01-25T07:43:00.755Z,30.93
2019-01-25T07:45:29.395Z,31.13
2019-01-25T07:47:58.062Z,31.03
2019-01-25T07:50:26.503Z,31.93
2019-01-25T07:52:54.916Z,30.67
2019-01-25T07:55:23.768Z,33.47
2019-01-25T07:57:52.238Z,32.10
2019-01-25T08:00:20.970Z,34.00
2019-01-25T08:02:49.412Z,32.10
2019-01-25T08:05:18.281Z,34.30
2019-01-25T08:07:46.673Z,32.40
2019-01-25T08:10:17.935Z,33.60
2019-01-25T08:12:46.711Z,35.17
2019-01-25T08:15:19.651Z,33.10
2019-01-25T08:17:48.288Z,32.90
2019-01-25T08:20:16.759Z,35.00
2019-01-25T08:22:45.210Z,35.87
2019-01-25T08:25:13.776Z,32.80
2019-01-25T08:27:42.507Z,33.93
2019-01-25T08:30:22.278Z,35.33
2019-01-25T08:32:51.345Z,33.13
2019-01-25T08:35:20.400Z,34.23
2019-01-25T08:37:49.465Z,36.53
2019-01-25T08:40:18.341Z,35.53
2019-01-25T08:42:46.978Z,35.50
2019-01-25T08:45:18.037Z,34.90
2019-01-25T08:47:46.913Z,32.50
2019-01-25T08:50:28.393Z,39.13
2019-01-25T08:52:57.438Z,32.90
2019-01-25T08:55:26.147Z,34.60
2019-01-25T08:57:54.567Z,36.83
2019-01-25T09:00:26.915Z,36.43
2019-01-25T09:02:55.706Z,34.37
2019-01-25T09:05:24.483Z,35.10
2019-01-25T09:07:53.107Z,36.80
2019-01-25T09:10:23.638Z,36.20
2019-01-25T09:12:52.352Z,34.93
2019-01-25T09:15:32.024Z,33.67
2019-01-25T09:18:00.541Z,36.67
2019-01-25T09:20:29.052Z,37.93
2019-01-25T09:22:57.491Z,33.93
2019-01-25T09:25:26.111Z,32.53
2019-01-25T09:27:54.756Z,33.20
2019-01-25T09:30:25.439Z,35.67
2019-01-25T09:32:54.085Z,37.93
2019-01-25T09:35:23.065Z,35.97
2019-01-25T09:37:51.850Z,38.70
2019-01-25T09:40:24.992Z,37.17
2019-01-25T09:42:53.470Z,37.30
2019-01-25T09:45:22.459Z,34.07
2019-01-25T09:47:51.152Z,36.33
2019-01-25T09:50:23.456Z,37.77
2019-01-25T09:52:52.417Z,33.70
2019-01-25T09:55:24.853Z,34.50
2019-01-25T09:57:56.775Z,37.73
2019-01-25T10:00:34.875Z,34.60
2019-01-25T10:03:03.517Z,37.67
2019-01-25T10:05:31.942Z,40.00
2019-01-25T10:08:00.599Z,40.40
2019-01-25T10:10:29.025Z,37.67
2019-01-25T10:12:57.505Z,37.90
2019-01-25T10:15:27.930Z,37.60
2019-01-25T10:17:56.612Z,35.07
2019-01-25T10:20:25.510Z,35.10
2019-01-25T10:22:53.910Z,36.23
2019-01-25T10:25:22.421Z,40.20
2019-01-25T10:27:51.100Z,39.30
2019-01-25T10:30:25.063Z,36.80
2019-01-25T10:32:53.567Z,38.43
2019-01-25T10:35:22.430Z,39.37
2019-01-25T10:37:52.109Z,37.33
2019-01-25T10:40:22.324Z,38.20
2019-01-25T10:42:53.515Z,41.13
2019-01-25T10:45:36.114Z,35.10
2019-01-25T10:48:05.668Z,40.00
2019-01-25T10:50:34.158Z,37.47
2019-01-25T10:53:02.726Z,34.33
2019-01-25T10:55:31.554Z,34.83
2019-01-25T10:58:00.688Z,38.03
2019-01-25T11:00:29.415Z,38.03
2019-01-25T11:02:58.619Z,37.37
2019-01-25T11:05:30.081Z,40.80
2019-01-25T11:07:58.628Z,38.37
2019-01-25T11:10:27.272Z,39.60
2019-01-25T11:13:01.001Z,36.20
2019-01-25T11:15:27.194Z,41.03
2019-01-25T11:17:55.684Z,41.80
2019-01-25T11:20:25.720Z,39.70
2019-01-25T11:22:55.021Z,38.60
2019-01-25T11:25:29.160Z,36.40
2019-01-25T11:27:57.630Z,37.63
2019-01-25T11:30:26.087Z,34.33
2019-01-25T11:32:54.734Z,36.63
2019-01-25T11:35:23.164Z,36.63
2019-01-25T11:37:52.320Z,38.57
2019-01-25T11:40:23.629Z,34.60
2019-01-25T11:42:53.686Z,42.00
2019-01-25T11:45:22.289Z,36.93
2019-01-25T11:47:51.885Z,34.50
2019-01-25T11:50:21.479Z,38.03
2019-01-25T11:52:49.922Z,38.60
2019-01-25T11:55:19.438Z,39.47
2019-01-25T11:57:48.280Z,33.80
2019-01-25T12:00:31.181Z,34.47
2019-01-25T12:02:59.761Z,37.23
2019-01-25T12:05:28.907Z,38.30
2019-01-25T12:07:57.756Z,36.63
2019-01-25T12:10:31.153Z,36.43
2019-01-25T12:13:00.277Z,36.20
2019-01-25T12:15:29.470Z,36.00
2019-01-25T12:17:58.139Z,36.40
2019-01-25T12:20:31.584Z,36.97
2019-01-25T12:23:00.417Z,35.90
2019-01-25T12:25:28.899Z,36.30
2019-01-25T12:27:57.583Z,36.60
2019-01-25T12:30:38.156Z,37.07
2019-01-25T12:33:07.618Z,36.87
2019-01-25T12:35:39.476Z,34.87
2019-01-25T12:38:08.091Z,32.87
2019-01-25T12:40:41.557Z,32.83
2019-01-25T12:43:07.068Z,36.00
2019-01-25T12:45:35.853Z,30.40
2019-01-25T12:48:04.819Z,31.67
2019-01-25T12:50:41.582Z,32.77
2019-01-25T12:53:11.564Z,32.00
2019-01-25T12:55:40.362Z,32.17
2019-01-25T12:58:09.250Z,31.30
2019-01-25T13:00:37.733Z,33.30
2019-01-25T13:03:06.289Z,32.27
2019-01-25T13:05:35.857Z,31.70
2019-01-25T13:08:04.733Z,29.73
2019-01-25T13:10:33.276Z,32.83
2019-01-25T13:13:02.097Z,30.40
2019-01-25T13:15:30.579Z,32.23
2019-01-25T13:17:59.065Z,28.93
2019-01-25T13:20:31.248Z,32.53
2019-01-25T13:23:00.038Z,29.63
2019-01-25T13:25:28.452Z,28.47
2019-01-25T13:27:57.119Z,29.13
2019-01-25T13:30:27.453Z,27.37
2019-01-25T13:32:56.336Z,24.90
2019-01-25T13:35:24.983Z,27.60
2019-01-25T13:37:53.737Z,28.53
2019-01-25T13:40:24.405Z,28.97
2019-01-25T13:42:53.197Z,34.07
2019-01-25T13:45:22.934Z,32.57
2019-01-25T13:47:51.789Z,36.37
2019-01-25T13:50:25.628Z,31.27
2019-01-25T13:52:54.114Z,35.40
2019-01-25T13:55:22.817Z,33.17
2019-01-25T13:57:51.879Z,34.27
2019-01-25T14:00:29.250Z,35.67
2019-01-25T14:02:57.791Z,33.13
2019-01-25T14:05:26.429Z,37.10
2019-01-25T14:07:54.960Z,33.27
2019-01-25T14:10:31.355Z,35.53
2019-01-25T14:12:59.843Z,36.60
2019-01-25T14:15:28.593Z,35.27
2019-01-25T14:17:57.494Z,37.67
2019-01-25T14:20:28.533Z,36.57
2019-01-25T14:22:57.671Z,30.03
2019-01-25T14:25:26.560Z,35.90
2019-01-25T14:27:55.063Z,28.40
2019-01-25T14:30:26.677Z,27.97
2019-01-25T14:32:55.406Z,29.73
2019-01-25T14:35:24.044Z,26.20
2019-01-25T14:37:52.711Z,24.70
2019-01-25T14:40:21.337Z,28.00
2019-01-25T14:42:49.766Z,28.37
2019-01-25T14:45:19.692Z,26.90
2019-01-25T14:47:49.204Z,26.10
2019-01-25T14:50:22.795Z,26.07
2019-01-25T14:52:51.527Z,29.57
2019-01-25T14:55:20.050Z,27.97
2019-01-25T14:57:49.278Z,25.70
2019-01-25T15:00:17.893Z,24.70
2019-01-25T15:02:46.582Z,26.80
2019-01-25T15:05:18.321Z,22.67
2019-01-25T15:07:46.813Z,18.90
2019-01-25T15:10:18.491Z,17.07
2019-01-25T15:12:47.607Z,16.30
2019-01-25T15:15:16.187Z,17.07
2019-01-25T15:17:44.905Z,17.10
2019-01-25T15:20:18.778Z,20.73
2019-01-25T15:22:47.471Z,18.57
2019-01-25T15:25:16.317Z,21.00
2019-01-25T15:27:44.725Z,18.90
2019-01-25T15:30:25.044Z,15.10
2019-01-25T15:32:53.828Z,14.47
2019-01-25T15:35:22.776Z,14.33
2019-01-25T15:37:51.233Z,12.93
2019-01-25T15:40:21.607Z,9.47
2019-01-25T15:42:50.336Z,8.20
2019-01-25T15:45:20.574Z,7.30
2019-01-25T15:47:49.404Z,7.10
2019-01-25T15:50:23.630Z,7.30
2019-01-25T15:52:52.337Z,6.43
2019-01-25T15:55:21.072Z,7.60
2019-01-25T15:57:49.515Z,8.40
2019-01-25T16:00:23.284Z,12.13
2019-01-25T16:02:52.754Z,13.83
2019-01-25T16:05:22.326Z,16.47
2019-01-25T16:07:51.050Z,16.97
2019-01-25T16:10:21.511Z,15.60
2019-01-25T16:12:50.545Z,13.50
2019-01-25T16:15:21.307Z,14.40
2019-01-25T16:17:50.074Z,11.80
2019-01-25T16:20:19.517Z,13.43
2019-01-25T16:22:49.811Z,14.60
2019-01-25T16:25:24.662Z,13.87
2019-01-25T16:27:53.524Z,13.20
2019-01-25T16:30:24.602Z,15.57
2019-01-25T16:32:53.198Z,15.30
2019-01-25T16:35:22.960Z,16.40
2019-01-25T16:37:52.876Z,16.43
2019-01-25T16:40:26.700Z,14.80
2019-01-25T16:42:57.318Z,17.00
2019-01-25T16:45:28.866Z,15.37
2019-01-25T16:47:57.719Z,18.30
2019-01-25T16:50:26.293Z,19.47
2019-01-25T16:52:54.890Z,17.00
2019-01-25T16:55:23.429Z,17.37
2019-01-25T16:57:52.108Z,18.10
2019-01-25T17:00:29.192Z,18.07
2019-01-25T17:02:57.958Z,19.13
2019-01-25T17:05:26.858Z,18.23
2019-01-25T17:07:55.372Z,17.97
2019-01-25T17:10:24.218Z,18.63
2019-01-25T17:12:53.024Z,21.50
2019-01-25T17:15:21.632Z,20.27
2019-01-25T17:17:50.453Z,20.50
2019-01-25T17:20:21.759Z,23.23
2019-01-25T17:22:50.339Z,21.47
2019-01-25T17:25:19.242Z,23.20
2019-01-25T17:27:47.791Z,23.20
2019-01-25T17:30:27.586Z,22.97
2019-01-25T17:32:57.701Z,22.53
2019-01-25T17:35:26.131Z,21.77
2019-01-25T17:37:54.565Z,22.80
2019-01-25T17:40:25.949Z,22.40
2019-01-25T17:42:54.379Z,23.57
2019-01-25T17:45:23.021Z,22.87
2019-01-25T17:47:51.990Z,22.87
2019-01-25T17:50:20.543Z,24.20
2019-01-25T17:52:48.988Z,24.57
2019-01-25T17:55:18.190Z,24.67
2019-01-25T17:57:46.687Z,23.90
2019-01-25T18:00:30.773Z,24.33
2019-01-25T18:02:59.467Z,24.70
2019-01-25T18:05:27.993Z,25.70
2019-01-25T18:07:56.756Z,26.93
2019-01-25T18:10:26.211Z,23.13
2019-01-25T18:12:54.798Z,23.60
2019-01-25T18:15:23.326Z,26.27
2019-01-25T18:17:51.970Z,22.20
2019-01-25T18:20:24.506Z,23.83
2019-01-25T18:22:53.720Z,22.80
2019-01-25T18:25:37.203Z,24.70
2019-01-25T18:28:11.664Z,23.93
2019-01-25T18:30:49.853Z,25.53
2019-01-25T18:33:18.513Z,24.20
2019-01-25T18:35:47.007Z,23.40
2019-01-25T18:38:15.604Z,23.87
2019-01-25T18:40:44.352Z,22.20
2019-01-25T18:43:13.267Z,21.60
2019-01-25T18:45:41.733Z,24.43
2019-01-25T18:48:10.281Z,22.50
2019-01-25T18:50:39.037Z,21.63
2019-01-25T18:53:07.753Z,20.73
2019-01-25T18:55:36.561Z,21.30
2019-01-25T18:58:05.112Z,21.10
2019-01-25T19:00:33.538Z,22.10
2019-01-25T19:03:02.001Z,21.43
2019-01-25T19:05:30.774Z,21.30
2019-01-25T19:07:59.913Z,21.23
2019-01-25T19:10:29.590Z,23.20
2019-01-25T19:12:58.560Z,21.27
2019-01-25T19:15:31.385Z,22.00
2019-01-25T19:18:00.434Z,23.00
2019-01-25T19:20:29.338Z,21.93
2019-01-25T19:22:57.835Z,22.40
2019-01-25T19:25:26.397Z,22.13
2019-01-25T19:27:55.151Z,21.90
2019-01-25T19:30:39.962Z,21.80
2019-01-25T19:33:08.513Z,21.87
2019-01-25T19:35:37.780Z,21.37
2019-01-25T19:38:07.831Z,20.80
2019-01-25T19:40:37.007Z,24.30
2019-01-25T19:43:07.625Z,22.60
2019-01-25T19:45:36.482Z,24.00
2019-01-25T19:48:05.814Z,21.63
2019-01-25T19:50:34.318Z,22.77
2019-01-25T19:53:03.093Z,21.90
2019-01-25T19:55:32.650Z,23.83
2019-01-25T19:58:03.491Z,23.77
2019-01-25T20:00:37.521Z,22.00
2019-01-25T20:03:07.084Z,24.40
2019-01-25T20:05:35.934Z,22.80
2019-01-25T20:08:05.406Z,22.17
2019-01-25T20:10:34.263Z,22.40
2019-01-25T20:13:02.661Z,21.57
2019-01-25T20:15:31.482Z,23.57
2019-01-25T20:17:59.934Z,19.60
2019-01-25T20:20:31.777Z,24.80
2019-01-25T20:23:00.749Z,20.80
2019-01-25T20:25:29.457Z,23.27
2019-01-25T20:28:00.343Z,23.77
2019-01-25T20:30:33.155Z,24.97
2019-01-25T20:33:03.142Z,24.33
2019-01-25T20:35:37.600Z,24.30
2019-01-25T20:38:07.462Z,21.53
2019-01-25T20:40:36.045Z,20.13
2019-01-25T20:43:05.439Z,22.67
2019-01-25T20:45:36.563Z,22.57
2019-01-25T20:48:05.193Z,21.20
2019-01-25T20:50:35.970Z,22.47
2019-01-25T20:53:06.287Z,22.50
2019-01-25T20:55:34.794Z,19.77
2019-01-25T20:58:03.929Z,20.57
2019-01-25T21:00:34.166Z,20.37
2019-01-25T21:03:02.940Z,20.50
2019-01-25T21:05:32.514Z,21.90
2019-01-25T21:08:01.180Z,21.03
2019-01-25T21:10:29.949Z,19.33
2019-01-25T21:12:58.761Z,20.40
2019-01-25T21:15:35.133Z,20.00
2019-01-25T21:17:58.742Z,18.87
2019-01-25T21:20:33.087Z,23.97
2019-01-25T21:23:01.562Z,20.07
2019-01-25T21:25:30.063Z,18.60
2019-01-25T21:27:58.558Z,24.77
2019-01-25T21:30:29.589Z,20.13
2019-01-25T21:32:58.076Z,22.40
2019-01-25T21:35:26.526Z,24.10
2019-01-25T21:37:54.927Z,20.60
2019-01-25T21:40:25.583Z,20.07
2019-01-25T21:42:54.377Z,19.97
2019-01-25T21:45:24.917Z,20.10
2019-01-25T21:47:53.576Z,18.50
2019-01-25T21:50:24.820Z,19.57
2019-01-25T21:52:53.453Z,19.60
2019-01-25T21:55:22.158Z,20.00
2019-01-25T21:57:50.838Z,19.20
2019-01-25T22:00:22.557Z,19.87
2019-01-25T22:02:51.025Z,19.80
2019-01-25T22:05:20.062Z,20.17
2019-01-25T22:07:48.543Z,19.60
2019-01-25T22:10:25.825Z,19.00
2019-01-25T22:12:54.470Z,19.57
2019-01-25T22:15:23.279Z,17.90
2019-01-25T22:17:51.946Z,18.50
2019-01-25T22:20:22.307Z,19.93
2019-01-25T22:22:50.890Z,19.47
2019-01-25T22:25:19.703Z,18.03
2019-01-25T22:27:50.043Z,17.70
2019-01-25T22:30:20.819Z,19.20
2019-01-25T22:32:49.702Z,19.13
2019-01-25T22:35:18.573Z,17.90
2019-01-25T22:37:47.290Z,16.20
2019-01-25T22:40:17.981Z,17.70
2019-01-25T22:42:46.370Z,17.10
2019-01-25T22:45:17.633Z,17.43
2019-01-25T22:47:46.196Z,17.63
2019-01-25T22:50:17.530Z,17.20
2019-01-25T22:52:46.181Z,17.47
2019-01-25T22:55:16.917Z,16.30
2019-01-25T22:57:45.794Z,17.87
2019-01-25T23:00:54.406Z,17.93
2019-01-25T23:03:36.145Z,16.50
2019-01-25T23:06:13.368Z,15.80
2019-01-25T23:08:42.050Z,20.27
2019-01-25T23:11:10.657Z,16.90
2019-01-25T23:13:39.190Z,18.53
2019-01-25T23:16:07.660Z,17.73
2019-01-25T23:18:36.313Z,16.90
2019-01-25T23:21:05.019Z,17.70
2019-01-25T23:23:33.441Z,17.23
2019-01-25T23:26:01.809Z,18.23
2019-01-25T23:28:30.480Z,19.50
2019-01-25T23:30:58.973Z,18.93
2019-01-25T23:33:27.617Z,18.53
2019-01-25T23:35:56.105Z,16.60
2019-01-25T23:38:24.521Z,19.17
2019-01-25T23:40:53.160Z,18.37
2019-01-25T23:43:21.828Z,18.13
2019-01-25T23:45:50.463Z,17.60
2019-01-25T23:48:18.937Z,18.67
2019-01-25T23:50:47.388Z,17.87
2019-01-25T23:53:15.783Z,17.57
2019-01-25T23:55:44.187Z,17.90
2019-01-25T23:58:12.625Z,16.97
